sensor_id;sensor_type;location;lat;lon;timestamp;pressure;altitude;pressure_sealevel;temperature;humidity
74435;BME280;62867;52.038;29.256;2022-12-10T00:04:16;1017.3;;;3.2;71.9
74435;BME280;62867;52.038;29.256;2022-12-10T00:09:17;1017.2;;;3.1;71.8
74435;BME280;62867;52.038;29.256;2022-12-10T00:14:24;1017.1;;;3.1;72
74435;BME280;62867;52.038;29.256;2022-12-10T00:19:16;1017.1;;;3.2;71.8
74435;BME280;62867;52.038;29.256;2022-12-10T00:24:38;1017.1;;;3.2;71.6
74435;BME280;62867;52.038;29.256;2022-12-10T00:29:24;1017.3;;;3.1;71.6
74435;BME280;62867;52.038;29.256;2022-12-10T00:34:34;1017.1;;;3;71.8
74435;BME280;62867;52.038;29.256;2022-12-10T00:39:24;1017;;;3;71.9
74435;BME280;62867;52.038;29.256;2022-12-10T00:44:16;1017.1;;;3;71.8
74435;BME280;62867;52.038;29.256;2022-12-10T00:49:28;1017.2;;;3;72.2
74435;BME280;62867;52.038;29.256;2022-12-10T00:54:16;1017.2;;;3;72.4
74435;BME280;62867;52.038;29.256;2022-12-10T00:59:16;1017.1;;;3.1;72.5
74435;BME280;62867;52.038;29.256;2022-12-10T01:04:24;1017.3;;;3.1;72.2
74435;BME280;62867;52.038;29.256;2022-12-10T01:09:38;1017.4;;;3.1;72.4
74435;BME280;62867;52.038;29.256;2022-12-10T01:14:29;1017.3;;;3.2;72.1
74435;BME280;62867;52.038;29.256;2022-12-10T01:19:44;1017.3;;;3.2;72.2
74435;BME280;62867;52.038;29.256;2022-12-10T01:24:28;1017;;;3.2;72.2
74435;BME280;62867;52.038;29.256;2022-12-10T01:29:20;1016.9;;;3.2;72.3
74435;BME280;62867;52.038;29.256;2022-12-10T01:34:20;1016.6;;;3.2;72.1
74435;BME280;62867;52.038;29.256;2022-12-10T01:39:30;1016.3;;;3.2;72.3
74435;BME280;62867;52.038;29.256;2022-12-10T01:45:26;1016.2;;;3.2;72.3
74435;BME280;62867;52.038;29.256;2022-12-10T01:49:21;1016.2;;;3.1;72.6
74435;BME280;62867;52.038;29.256;2022-12-10T01:54:29;1015.7;;;3.1;72.9
74435;BME280;62867;52.038;29.256;2022-12-10T01:59:40;1016.1;;;3.1;73
74435;BME280;62867;52.038;29.256;2022-12-10T02:05:03;1016.3;;;3.1;73.2
74435;BME280;62867;52.038;29.256;2022-12-10T02:09:34;1016.1;;;3.1;73.2
74435;BME280;62867;52.038;29.256;2022-12-10T02:14:23;1016.3;;;3.1;73.2
74435;BME280;62867;52.038;29.256;2022-12-10T02:19:21;1016.2;;;3.1;73.3
74435;BME280;62867;52.038;29.256;2022-12-10T02:24:29;1015.9;;;3.1;73.2
74435;BME280;62867;52.038;29.256;2022-12-10T02:29:21;1015.9;;;3.1;73.3
74435;BME280;62867;52.038;29.256;2022-12-10T02:34:32;1015.6;;;3.1;73.6
74435;BME280;62867;52.038;29.256;2022-12-10T02:39:34;1015.5;;;3.1;73.6
74435;BME280;62867;52.038;29.256;2022-12-10T02:44:21;1015.1;;;3.1;73.4
74435;BME280;62867;52.038;29.256;2022-12-10T02:49:29;1015.5;;;3.1;73.4
74435;BME280;62867;52.038;29.256;2022-12-10T02:54:40;1015.5;;;3.1;73.5
74435;BME280;62867;52.038;29.256;2022-12-10T02:59:33;1015.2;;;3.1;73.5
74435;BME280;62867;52.038;29.256;2022-12-10T03:04:31;1015.2;;;3.2;73.4
74435;BME280;62867;52.038;29.256;2022-12-10T03:09:22;1015.3;;;3.2;73.5
74435;BME280;62867;52.038;29.256;2022-12-10T03:14:30;1015.4;;;3.2;73.2
74435;BME280;62867;52.038;29.256;2022-12-10T03:19:31;1015.1;;;3.2;73.2
74435;BME280;62867;52.038;29.256;2022-12-10T03:24:30;1014.8;;;3.2;73.4
74435;BME280;62867;52.038;29.256;2022-12-10T03:29:22;1015.2;;;3.2;73.3
74435;BME280;62867;52.038;29.256;2022-12-10T03:34:21;1015;;;3.2;73.4
74435;BME280;62867;52.038;29.256;2022-12-10T03:39:30;1014.7;;;3.2;73.6
74435;BME280;62867;52.038;29.256;2022-12-10T03:44:26;1014.6;;;3.2;73.6
74435;BME280;62867;52.038;29.256;2022-12-10T03:49:20;1014.6;;;3.2;73.5
74435;BME280;62867;52.038;29.256;2022-12-10T03:54:28;1014.6;;;3.2;73.6
74435;BME280;62867;52.038;29.256;2022-12-10T03:59:30;1014.5;;;3.3;73.5
74435;BME280;62867;52.038;29.256;2022-12-10T04:04:20;1014.3;;;3.3;73.4
74435;BME280;62867;52.038;29.256;2022-12-10T04:09:30;1014.5;;;3.3;73.4
74435;BME280;62867;52.038;29.256;2022-12-10T04:14:28;1014.7;;;3.3;73.5
74435;BME280;62867;52.038;29.256;2022-12-10T04:19:40;1014.7;;;3.4;73.5
74435;BME280;62867;52.038;29.256;2022-12-10T04:24:21;1014.7;;;3.4;73.2
74435;BME280;62867;52.038;29.256;2022-12-10T04:29:41;1014.7;;;3.4;73
74435;BME280;62867;52.038;29.256;2022-12-10T04:34:29;1014.5;;;3.4;72.9
74435;BME280;62867;52.038;29.256;2022-12-10T04:39:30;1014.4;;;3.3;73
74435;BME280;62867;52.038;29.256;2022-12-10T04:44:20;1014.3;;;3.3;73.2
74435;BME280;62867;52.038;29.256;2022-12-10T04:49:40;1014.2;;;3.3;73.4
74435;BME280;62867;52.038;29.256;2022-12-10T04:54:41;1014;;;3.4;73.5
74435;BME280;62867;52.038;29.256;2022-12-10T04:59:20;1013.8;;;3.4;73.4
74435;BME280;62867;52.038;29.256;2022-12-10T05:04:21;1013.7;;;3.4;73.4
74435;BME280;62867;52.038;29.256;2022-12-10T05:09:32;1013.6;;;3.4;73.4
74435;BME280;62867;52.038;29.256;2022-12-10T05:14:20;1013.5;;;3.4;73.4
74435;BME280;62867;52.038;29.256;2022-12-10T05:19:21;1013.5;;;3.4;73.4
74435;BME280;62867;52.038;29.256;2022-12-10T05:24:28;1013.4;;;3.4;73.4
74435;BME280;62867;52.038;29.256;2022-12-10T05:29:33;1013.3;;;3.4;73.2
74435;BME280;62867;52.038;29.256;2022-12-10T05:34:31;1013.3;;;3.4;73
74435;BME280;62867;52.038;29.256;2022-12-10T05:39:20;1013.1;;;3.4;73
74435;BME280;62867;52.038;29.256;2022-12-10T05:44:28;1013;;;3.4;73
74435;BME280;62867;52.038;29.256;2022-12-10T05:49:28;1012.9;;;3.3;73.3
74435;BME280;62867;52.038;29.256;2022-12-10T05:54:33;1012.7;;;3.4;73.7
74435;BME280;62867;52.038;29.256;2022-12-10T05:59:32;1012.6;;;3.4;73.6
74435;BME280;62867;52.038;29.256;2022-12-10T06:04:32;1012.5;;;3.4;73.6
74435;BME280;62867;52.038;29.256;2022-12-10T06:09:20;1012.5;;;3.4;73.6
74435;BME280;62867;52.038;29.256;2022-12-10T06:14:21;1012.3;;;3.4;73.6
74435;BME280;62867;52.038;29.256;2022-12-10T06:19:30;1012.1;;;3.4;73.5
74435;BME280;62867;52.038;29.256;2022-12-10T06:24:41;1012.2;;;3.4;73.5
74435;BME280;62867;52.038;29.256;2022-12-10T06:29:40;1012.4;;;3.4;73.5
74435;BME280;62867;52.038;29.256;2022-12-10T06:34:21;1012.3;;;3.3;73.9
74435;BME280;62867;52.038;29.256;2022-12-10T06:39:43;1012.2;;;3.3;73.8
74435;BME280;62867;52.038;29.256;2022-12-10T06:44:21;1012.2;;;3.3;73.9
74435;BME280;62867;52.038;29.256;2022-12-10T06:49:47;1012;;;3.3;73.9
74435;BME280;62867;52.038;29.256;2022-12-10T06:54:31;1011.9;;;3.4;73.9
74435;BME280;62867;52.038;29.256;2022-12-10T06:59:33;1011.8;;;3.4;73.8
74435;BME280;62867;52.038;29.256;2022-12-10T07:04:31;1011.7;;;3.4;73.8
74435;BME280;62867;52.038;29.256;2022-12-10T07:09:39;1011.5;;;3.5;73.6
74435;BME280;62867;52.038;29.256;2022-12-10T07:14:21;1011.5;;;3.4;73.6
74435;BME280;62867;52.038;29.256;2022-12-10T07:19:21;1011.6;;;3.4;73.9
74435;BME280;62867;52.038;29.256;2022-12-10T07:24:31;1011.5;;;3.4;73.9
74435;BME280;62867;52.038;29.256;2022-12-10T07:29:21;1011.6;;;3.4;73.7
74435;BME280;62867;52.038;29.256;2022-12-10T07:34:43;1011.6;;;3.3;73.6
74435;BME280;62867;52.038;29.256;2022-12-10T07:39:45;1011.6;;;3.3;73.9
74435;BME280;62867;52.038;29.256;2022-12-10T07:44:21;1011.5;;;3.4;73.9
74435;BME280;62867;52.038;29.256;2022-12-10T07:49:29;1011.4;;;3.5;73.7
74435;BME280;62867;52.038;29.256;2022-12-10T07:54:33;1011.4;;;3.6;73.5
74435;BME280;62867;52.038;29.256;2022-12-10T07:59:31;1011.3;;;3.6;73.1
74435;BME280;62867;52.038;29.256;2022-12-10T08:04:21;1011.3;;;3.6;73.2
74435;BME280;62867;52.038;29.256;2022-12-10T08:09:37;1011.2;;;3.7;73.2
74435;BME280;62867;52.038;29.256;2022-12-10T08:14:21;1011.2;;;3.7;73.2
74435;BME280;62867;52.038;29.256;2022-12-10T08:19:21;1011.2;;;3.7;73
74435;BME280;62867;52.038;29.256;2022-12-10T08:24:21;1011.1;;;3.8;72.6
74435;BME280;62867;52.038;29.256;2022-12-10T08:29:29;1011.1;;;3.8;72.5
74435;BME280;62867;52.038;29.256;2022-12-10T08:34:21;1011;;;3.9;72.3
74435;BME280;62867;52.038;29.256;2022-12-10T08:39:29;1011;;;3.9;72.2
74435;BME280;62867;52.038;29.256;2022-12-10T08:44:39;1010.9;;;3.9;72.3
74435;BME280;62867;52.038;29.256;2022-12-10T08:49:31;1011;;;4;72.4
74435;BME280;62867;52.038;29.256;2022-12-10T08:54:23;1010.9;;;4.1;72.1
74435;BME280;62867;52.038;29.256;2022-12-10T08:59:21;1010.9;;;4.1;71.9
74435;BME280;62867;52.038;29.256;2022-12-10T09:04:21;1010.8;;;4.1;72
74435;BME280;62867;52.038;29.256;2022-12-10T09:09:21;1010.7;;;4.1;72.1
74435;BME280;62867;52.038;29.256;2022-12-10T09:14:33;1010.7;;;4.1;71.5
74435;BME280;62867;52.038;29.256;2022-12-10T09:19:21;1010.7;;;4.1;71.4
74435;BME280;62867;52.038;29.256;2022-12-10T09:24:21;1010.6;;;4.1;71.4
74435;BME280;62867;52.038;29.256;2022-12-10T09:29:41;1010.6;;;4.1;71.7
74435;BME280;62867;52.038;29.256;2022-12-10T09:34:31;1010.5;;;4.2;71.7
74435;BME280;62867;52.038;29.256;2022-12-10T09:39:21;1010.5;;;4.3;71.6
74435;BME280;62867;52.038;29.256;2022-12-10T09:44:31;1010.5;;;4.3;71.5
74435;BME280;62867;52.038;29.256;2022-12-10T09:49:33;1010.4;;;4.4;71.3
74435;BME280;62867;52.038;29.256;2022-12-10T09:54:42;1010.4;;;4.4;71.3
74435;BME280;62867;52.038;29.256;2022-12-10T09:59:21;1010.3;;;4.4;71
74435;BME280;62867;52.038;29.256;2022-12-10T10:04:21;1010.3;;;4.4;71.2
74435;BME280;62867;52.038;29.256;2022-12-10T10:09:29;1010.2;;;4.4;70.9
74435;BME280;62867;52.038;29.256;2022-12-10T10:14:39;1010.2;;;4.4;70.8
74435;BME280;62867;52.038;29.256;2022-12-10T10:19:29;1010.2;;;4.4;70.7
74435;BME280;62867;52.038;29.256;2022-12-10T10:24:21;1010.1;;;4.4;70.9
74435;BME280;62867;52.038;29.256;2022-12-10T10:29:29;1010;;;4.5;70.9
74435;BME280;62867;52.038;29.256;2022-12-10T10:34:45;1010.1;;;4.6;70.8
74435;BME280;62867;52.038;29.256;2022-12-10T10:39:24;1010.1;;;4.6;70.6
74435;BME280;62867;52.038;29.256;2022-12-10T10:44:21;1010;;;4.7;70.6
74435;BME280;62867;52.038;29.256;2022-12-10T10:49:29;1010;;;4.7;70.7
74435;BME280;62867;52.038;29.256;2022-12-10T10:54:34;1010;;;4.7;70.3
74435;BME280;62867;52.038;29.256;2022-12-10T10:59:41;1009.8;;;4.7;70.3
74435;BME280;62867;52.038;29.256;2022-12-10T11:04:24;1009.8;;;4.7;70.4
74435;BME280;62867;52.038;29.256;2022-12-10T11:09:21;1009.9;;;4.8;70
74435;BME280;62867;52.038;29.256;2022-12-10T11:14:33;1009.9;;;4.8;70.1
74435;BME280;62867;52.038;29.256;2022-12-10T11:19:21;1009.9;;;4.9;70.3
74435;BME280;62867;52.038;29.256;2022-12-10T11:24:21;1009.9;;;4.9;70.2
74435;BME280;62867;52.038;29.256;2022-12-10T11:29:24;1009.8;;;5;70.2
74435;BME280;62867;52.038;29.256;2022-12-10T11:34:25;1009.7;;;5;69.9
74435;BME280;62867;52.038;29.256;2022-12-10T11:39:25;1009.7;;;5;69.9
74435;BME280;62867;52.038;29.256;2022-12-10T11:44:23;1009.7;;;5;69.8
74435;BME280;62867;52.038;29.256;2022-12-10T11:49:23;1009.8;;;4.9;69.5
74435;BME280;62867;52.038;29.256;2022-12-10T11:54:36;1009.8;;;4.9;69.6
74435;BME280;62867;52.038;29.256;2022-12-10T11:59:31;1009.8;;;4.8;69.6
74435;BME280;62867;52.038;29.256;2022-12-10T12:04:48;1009.9;;;4.8;69.7
74435;BME280;62867;52.038;29.256;2022-12-10T12:09:35;1009.8;;;4.8;70
74435;BME280;62867;52.038;29.256;2022-12-10T12:14:22;1009.7;;;4.8;70.1
74435;BME280;62867;52.038;29.256;2022-12-10T12:19:44;1009.8;;;4.9;70.1
74435;BME280;62867;52.038;29.256;2022-12-10T12:24:32;1009.9;;;4.9;70.3
74435;BME280;62867;52.038;29.256;2022-12-10T12:29:21;1009.9;;;4.8;70.4
74435;BME280;62867;52.038;29.256;2022-12-10T12:34:21;1009.9;;;4.8;70.4
74435;BME280;62867;52.038;29.256;2022-12-10T12:39:32;1010;;;4.7;70.4
74435;BME280;62867;52.038;29.256;2022-12-10T12:44:22;1010;;;4.7;70.5
74435;BME280;62867;52.038;29.256;2022-12-10T12:49:22;1010.2;;;4.6;70.6
74435;BME280;62867;52.038;29.256;2022-12-10T12:54:21;1010.1;;;4.6;70.7
74435;BME280;62867;52.038;29.256;2022-12-10T12:59:24;1010.1;;;4.5;70.8
74435;BME280;62867;52.038;29.256;2022-12-10T13:04:41;1010.2;;;4.5;70.8
74435;BME280;62867;52.038;29.256;2022-12-10T13:09:42;1010.2;;;4.5;70.8
74435;BME280;62867;52.038;29.256;2022-12-10T13:14:33;1010.2;;;4.5;71.2
74435;BME280;62867;52.038;29.256;2022-12-10T13:19:29;1010.2;;;4.5;71.2
74435;BME280;62867;52.038;29.256;2022-12-10T13:24:21;1010.3;;;4.5;71.2
74435;BME280;62867;52.038;29.256;2022-12-10T13:29:23;1010.3;;;4.4;71.3
74435;BME280;62867;52.038;29.256;2022-12-10T13:34:45;1010.3;;;4.4;71.5
74435;BME280;62867;52.038;29.256;2022-12-10T13:39:21;1010.4;;;4.4;71.3
74435;BME280;62867;52.038;29.256;2022-12-10T13:44:33;1010.4;;;4.3;71.4
74435;BME280;62867;52.038;29.256;2022-12-10T13:49:22;1010.3;;;4.3;71.4
74435;BME280;62867;52.038;29.256;2022-12-10T13:54:29;1010.3;;;4.3;71.3
74435;BME280;62867;52.038;29.256;2022-12-10T13:59:33;1010.2;;;4.2;71.3
74435;BME280;62867;52.038;29.256;2022-12-10T14:04:47;1010.1;;;4.2;71.7
74435;BME280;62867;52.038;29.256;2022-12-10T14:09:42;1010.1;;;4.2;71.9
74435;BME280;62867;52.038;29.256;2022-12-10T14:14:31;1010.1;;;4.2;71.9
74435;BME280;62867;52.038;29.256;2022-12-10T14:19:21;1010.2;;;4.2;71.9
74435;BME280;62867;52.038;29.256;2022-12-10T14:24:35;1010.3;;;4.2;72
74435;BME280;62867;52.038;29.256;2022-12-10T14:29:27;1010.2;;;4.2;72
74435;BME280;62867;52.038;29.256;2022-12-10T14:34:21;1010.2;;;4.2;71.9
74435;BME280;62867;52.038;29.256;2022-12-10T14:39:30;1010.2;;;4.1;71.8
74435;BME280;62867;52.038;29.256;2022-12-10T14:44:19;1010.2;;;4.1;72.2
74435;BME280;62867;52.038;29.256;2022-12-10T14:49:20;1010.3;;;4.1;72.4
74435;BME280;62867;52.038;29.256;2022-12-10T14:54:30;1010.2;;;4.1;72.3
74435;BME280;62867;52.038;29.256;2022-12-10T14:59:19;1010.1;;;4.1;72.4
74435;BME280;62867;52.038;29.256;2022-12-10T15:04:19;1010.2;;;4.1;72.6
74435;BME280;62867;52.038;29.256;2022-12-10T15:09:29;1010.4;;;4.1;72.7
74435;BME280;62867;52.038;29.256;2022-12-10T15:14:39;1010.5;;;4.1;72.6
74435;BME280;62867;52.038;29.256;2022-12-10T15:19:31;1010.5;;;4.1;72.5
74435;BME280;62867;52.038;29.256;2022-12-10T15:24:42;1010.7;;;4.1;72.7
74435;BME280;62867;52.038;29.256;2022-12-10T15:29:29;1010.6;;;4.1;72.8
74435;BME280;62867;52.038;29.256;2022-12-10T15:34:19;1010.5;;;4.1;72.5
74435;BME280;62867;52.038;29.256;2022-12-10T15:39:20;1010.5;;;4;72.4
74435;BME280;62867;52.038;29.256;2022-12-10T15:44:32;1010.6;;;4;72.7
74435;BME280;62867;52.038;29.256;2022-12-10T15:49:19;1010.6;;;3.9;72.9
74435;BME280;62867;52.038;29.256;2022-12-10T15:54:20;1010.6;;;3.9;73
74435;BME280;62867;52.038;29.256;2022-12-10T15:59:29;1010.7;;;4;73.4
74435;BME280;62867;52.038;29.256;2022-12-10T16:05:01;1010.6;;;4;73.3
74435;BME280;62867;52.038;29.256;2022-12-10T16:09:19;1010.6;;;4;73.1
74435;BME280;62867;52.038;29.256;2022-12-10T16:14:43;1010.6;;;4;72.9
74435;BME280;62867;52.038;29.256;2022-12-10T16:19:39;1010.7;;;4;73.1
74435;BME280;62867;52.038;29.256;2022-12-10T16:24:19;1010.7;;;4;73.1
74435;BME280;62867;52.038;29.256;2022-12-10T16:29:27;1010.6;;;4;72.8
74435;BME280;62867;52.038;29.256;2022-12-10T16:34:31;1010.5;;;3.9;72.9
74435;BME280;62867;52.038;29.256;2022-12-10T16:39:27;1010.5;;;3.9;73.2
74435;BME280;62867;52.038;29.256;2022-12-10T16:44:37;1010.5;;;3.9;73.3
74435;BME280;62867;52.038;29.256;2022-12-10T16:49:27;1010.7;;;3.9;73.5
74435;BME280;62867;52.038;29.256;2022-12-10T16:54:39;1010.8;;;3.9;73.6
74435;BME280;62867;52.038;29.256;2022-12-10T16:59:19;1010.8;;;3.9;73.6
74435;BME280;62867;52.038;29.256;2022-12-10T17:04:19;1011;;;3.9;73.6
74435;BME280;62867;52.038;29.256;2022-12-10T17:09:27;1011.1;;;3.9;73.6
74435;BME280;62867;52.038;29.256;2022-12-10T17:14:43;1011.1;;;3.9;73.6
74435;BME280;62867;52.038;29.256;2022-12-10T17:19:28;1010.9;;;3.9;73.6
74435;BME280;62867;52.038;29.256;2022-12-10T17:24:29;1010.9;;;3.9;73.5
74435;BME280;62867;52.038;29.256;2022-12-10T17:29:20;1010.9;;;3.9;73.4
74435;BME280;62867;52.038;29.256;2022-12-10T17:34:31;1010.9;;;3.9;73.3
74435;BME280;62867;52.038;29.256;2022-12-10T17:39:53;1011.1;;;3.8;73.4
74435;BME280;62867;52.038;29.256;2022-12-10T17:44:29;1011.2;;;3.8;73.7
74435;BME280;62867;52.038;29.256;2022-12-10T17:49:37;1011.2;;;3.8;73.6
74435;BME280;62867;52.038;29.256;2022-12-10T17:54:19;1011.1;;;3.9;73.7
74435;BME280;62867;52.038;29.256;2022-12-10T17:59:19;1011.1;;;3.9;73.7
74435;BME280;62867;52.038;29.256;2022-12-10T18:04:19;1011.1;;;3.9;73.8
74435;BME280;62867;52.038;29.256;2022-12-10T18:09:19;1011;;;3.9;73.7
74435;BME280;62867;52.038;29.256;2022-12-10T18:14:31;1011.1;;;3.9;73.5
74435;BME280;62867;52.038;29.256;2022-12-10T18:19:27;1011;;;3.9;73.5
74435;BME280;62867;52.038;29.256;2022-12-10T18:24:19;1011;;;3.9;73.3
74435;BME280;62867;52.038;29.256;2022-12-10T18:29:19;1011;;;3.9;73.5
74435;BME280;62867;52.038;29.256;2022-12-10T18:34:31;1011;;;3.9;73.4
74435;BME280;62867;52.038;29.256;2022-12-10T18:39:31;1011;;;3.9;73.4
74435;BME280;62867;52.038;29.256;2022-12-10T18:44:29;1011.1;;;3.9;73.5
74435;BME280;62867;52.038;29.256;2022-12-10T18:49:19;1011.2;;;3.9;73.5
74435;BME280;62867;52.038;29.256;2022-12-10T18:54:39;1011.2;;;3.9;73.7
74435;BME280;62867;52.038;29.256;2022-12-10T18:59:29;1011.2;;;4;73.7
74435;BME280;62867;52.038;29.256;2022-12-10T19:04:19;1011.2;;;4;73.6
74435;BME280;62867;52.038;29.256;2022-12-10T19:09:31;1011.2;;;4;73.6
74435;BME280;62867;52.038;29.256;2022-12-10T19:14:29;1011.2;;;3.9;73.2
74435;BME280;62867;52.038;29.256;2022-12-10T19:19:19;1011.2;;;3.9;73.1
74435;BME280;62867;52.038;29.256;2022-12-10T19:24:19;1011.2;;;3.9;73.1
74435;BME280;62867;52.038;29.256;2022-12-10T19:29:39;1011.3;;;3.9;73
74435;BME280;62867;52.038;29.256;2022-12-10T19:34:19;1011.4;;;3.9;73.1
74435;BME280;62867;52.038;29.256;2022-12-10T19:39:20;1011.5;;;3.9;73.2
74435;BME280;62867;52.038;29.256;2022-12-10T19:44:19;1011.6;;;3.9;73.2
74435;BME280;62867;52.038;29.256;2022-12-10T19:49:19;1011.5;;;3.9;73.3
74435;BME280;62867;52.038;29.256;2022-12-10T19:54:29;1011.5;;;4;73.2
74435;BME280;62867;52.038;29.256;2022-12-10T19:59:33;1011.6;;;4;73.1
74435;BME280;62867;52.038;29.256;2022-12-10T20:04:19;1011.6;;;4;73.1
74435;BME280;62867;52.038;29.256;2022-12-10T20:09:20;1011.7;;;3.9;72.8
74435;BME280;62867;52.038;29.256;2022-12-10T20:14:31;1011.7;;;3.9;72.8
74435;BME280;62867;52.038;29.256;2022-12-10T20:19:31;1011.7;;;3.9;72.9
74435;BME280;62867;52.038;29.256;2022-12-10T20:24:19;1011.7;;;3.9;72.9
74435;BME280;62867;52.038;29.256;2022-12-10T20:29:20;1011.7;;;3.9;72.9
74435;BME280;62867;52.038;29.256;2022-12-10T20:34:31;1011.8;;;3.9;73
74435;BME280;62867;52.038;29.256;2022-12-10T20:39:20;1011.9;;;3.9;73.2
74435;BME280;62867;52.038;29.256;2022-12-10T20:44:19;1011.9;;;3.9;73.1
74435;BME280;62867;52.038;29.256;2022-12-10T20:49:20;1011.8;;;3.9;73.2
74435;BME280;62867;52.038;29.256;2022-12-10T20:54:29;1011.9;;;3.9;73
74435;BME280;62867;52.038;29.256;2022-12-10T20:59:19;1011.9;;;4;73.1
74435;BME280;62867;52.038;29.256;2022-12-10T21:04:27;1011.9;;;4;72.8
74435;BME280;62867;52.038;29.256;2022-12-10T21:09:19;1011.9;;;3.9;72.6
74435;BME280;62867;52.038;29.256;2022-12-10T21:14:19;1011.9;;;3.9;72.6
74435;BME280;62867;52.038;29.256;2022-12-10T21:19:27;1011.9;;;3.9;72.6
74435;BME280;62867;52.038;29.256;2022-12-10T21:24:19;1011.9;;;3.9;72.7
74435;BME280;62867;52.038;29.256;2022-12-10T21:29:19;1011.9;;;3.9;72.8
74435;BME280;62867;52.038;29.256;2022-12-10T21:34:39;1011.9;;;3.9;72.8
74435;BME280;62867;52.038;29.256;2022-12-10T21:39:19;1011.9;;;3.9;73
74435;BME280;62867;52.038;29.256;2022-12-10T21:44:19;1011.9;;;3.9;73
74435;BME280;62867;52.038;29.256;2022-12-10T21:49:17;1011.8;;;3.9;72.9
74435;BME280;62867;52.038;29.256;2022-12-10T21:54:17;1011.9;;;3.9;73.1
74435;BME280;62867;52.038;29.256;2022-12-10T21:59:37;1011.9;;;3.9;73
74435;BME280;62867;52.038;29.256;2022-12-10T22:04:37;1011.9;;;3.9;72.8
74435;BME280;62867;52.038;29.256;2022-12-10T22:09:25;1011.9;;;3.9;72.7
74435;BME280;62867;52.038;29.256;2022-12-10T22:14:17;1012;;;3.9;72.6
74435;BME280;62867;52.038;29.256;2022-12-10T22:19:25;1012;;;3.9;72.7
74435;BME280;62867;52.038;29.256;2022-12-10T22:24:17;1012;;;3.8;72.8
74435;BME280;62867;52.038;29.256;2022-12-10T22:29:17;1012;;;3.9;72.9
74435;BME280;62867;52.038;29.256;2022-12-10T22:34:17;1012;;;3.9;73
74435;BME280;62867;52.038;29.256;2022-12-10T22:39:25;1011.9;;;3.9;73
74435;BME280;62867;52.038;29.256;2022-12-10T22:44:27;1011.9;;;4;73
74435;BME280;62867;52.038;29.256;2022-12-10T22:49:17;1011.9;;;3.9;73
74435;BME280;62867;52.038;29.256;2022-12-10T22:54:29;1012;;;3.9;72.9
74435;BME280;62867;52.038;29.256;2022-12-10T22:59:39;1012;;;3.9;72.9
74435;BME280;62867;52.038;29.256;2022-12-10T23:04:29;1012;;;3.9;72.7
74435;BME280;62867;52.038;29.256;2022-12-10T23:09:25;1012;;;3.9;72.7
74435;BME280;62867;52.038;29.256;2022-12-10T23:14:39;1012;;;3.9;72.7
74435;BME280;62867;52.038;29.256;2022-12-10T23:19:17;1012;;;3.9;72.8
74435;BME280;62867;52.038;29.256;2022-12-10T23:24:27;1012.1;;;3.9;72.6
74435;BME280;62867;52.038;29.256;2022-12-10T23:29:17;1012.1;;;3.9;72.8
74435;BME280;62867;52.038;29.256;2022-12-10T23:34:17;1012;;;3.9;72.8
74435;BME280;62867;52.038;29.256;2022-12-10T23:39:17;1012;;;3.9;72.7
74435;BME280;62867;52.038;29.256;2022-12-10T23:44:17;1012;;;4;72.9
74435;BME280;62867;52.038;29.256;2022-12-10T23:49:17;1012;;;4;72.9
74435;BME280;62867;52.038;29.256;2022-12-10T23:54:17;1012.1;;;4;72.8
74435;BME280;62867;52.038;29.256;2022-12-10T23:59:37;1012.1;;;3.9;72.4
